createdAt,value
2017-03-10T00:00:59.526Z,0
2017-03-10T00:02:09.414Z,0
2017-03-10T00:03:18.913Z,0
2017-03-10T00:04:29.146Z,0
2017-03-10T00:05:39.411Z,0
2017-03-10T00:06:49.338Z,0
2017-03-10T00:07:59.615Z,0
2017-03-10T00:09:09.107Z,0
2017-03-10T00:10:19.663Z,0
2017-03-10T00:11:29.946Z,0
2017-03-10T00:12:40.223Z,0
2017-03-10T00:13:50.514Z,0
2017-03-10T00:15:00.785Z,0
2017-03-10T00:16:11.633Z,0
2017-03-10T00:17:21.903Z,0
2017-03-10T00:18:32.208Z,0
2017-03-10T00:19:42.858Z,0
2017-03-10T00:20:53.132Z,0
2017-03-10T00:22:03.752Z,0
2017-03-10T00:23:13.238Z,0
2017-03-10T00:24:23.509Z,0
2017-03-10T00:25:33.803Z,0
2017-03-10T00:26:44.492Z,0
2017-03-10T00:27:55.520Z,0
2017-03-10T00:29:05.402Z,0
2017-03-10T00:30:16.054Z,0
2017-03-10T00:31:26.324Z,0
2017-03-10T00:32:36.587Z,0
2017-03-10T00:33:47.168Z,0
2017-03-10T00:34:57.442Z,0
2017-03-10T00:36:07.346Z,0
2017-03-10T00:37:17.632Z,0
2017-03-10T00:38:28.303Z,0
2017-03-10T00:39:38.752Z,0
2017-03-10T00:40:49.309Z,0
2017-03-10T00:41:59.202Z,0
2017-03-10T00:43:09.861Z,0
2017-03-10T00:44:20.133Z,0
2017-03-10T00:45:30.313Z,0
2017-03-10T00:46:40.189Z,0
2017-03-10T00:47:50.527Z,0
2017-03-10T00:49:00.403Z,0
2017-03-10T00:50:10.275Z,0
2017-03-10T00:51:20.914Z,0
2017-03-10T00:52:30.793Z,0
2017-03-10T00:53:41.083Z,0
2017-03-10T00:54:51.745Z,0
2017-03-10T00:56:02.397Z,0
2017-03-10T00:57:13.202Z,0
2017-03-10T00:58:23.887Z,0
2017-03-10T00:59:34.144Z,0
2017-03-10T01:00:44.828Z,0
2017-03-10T01:01:55.486Z,0
2017-03-10T01:03:06.010Z,0
2017-03-10T01:04:16.276Z,0
2017-03-10T01:05:26.944Z,0
2017-03-10T01:06:37.225Z,0
2017-03-10T01:07:47.875Z,0
2017-03-10T01:08:58.327Z,0
2017-03-10T01:10:08.206Z,0
2017-03-10T01:11:18.892Z,0
2017-03-10T01:12:29.155Z,0
2017-03-10T01:13:40.085Z,0
2017-03-10T01:14:50.520Z,0
2017-03-10T01:16:00.394Z,0
2017-03-10T01:17:10.669Z,0
2017-03-10T01:18:21.347Z,0
2017-03-10T01:19:31.610Z,0
2017-03-10T01:20:42.058Z,0
2017-03-10T01:21:52.714Z,0
2017-03-10T01:23:03.376Z,0
2017-03-10T01:24:13.696Z,0
2017-03-10T01:25:23.596Z,0
2017-03-10T01:26:34.413Z,0
2017-03-10T01:27:44.683Z,0
2017-03-10T01:28:55.341Z,0
2017-03-10T01:30:05.652Z,0
2017-03-10T01:31:15.563Z,0
2017-03-10T01:32:26.569Z,0
2017-03-10T01:33:36.862Z,0
2017-03-10T01:34:47.435Z,0
2017-03-10T01:35:57.318Z,0
2017-03-10T01:37:07.215Z,0
2017-03-10T01:38:17.797Z,0
2017-03-10T01:39:28.070Z,0
2017-03-10T01:40:38.754Z,0
2017-03-10T01:41:49.030Z,0
2017-03-10T01:42:59.326Z,0
2017-03-10T01:44:10.272Z,0
2017-03-10T01:45:20.540Z,0
2017-03-10T01:46:30.818Z,0
2017-03-10T01:47:40.684Z,0
2017-03-10T01:48:50.963Z,0
2017-03-10T01:50:02.012Z,0
2017-03-10T01:51:12.678Z,0
2017-03-10T01:52:23.351Z,0
2017-03-10T01:53:33.225Z,0
2017-03-10T01:54:43.494Z,0
2017-03-10T01:55:54.296Z,0
2017-03-10T01:57:04.194Z,0
2017-03-10T01:58:14.837Z,0
2017-03-10T01:59:25.530Z,0
2017-03-10T02:00:35.812Z,0
2017-03-10T02:01:46.248Z,0
2017-03-10T02:02:56.127Z,0
2017-03-10T02:04:06.406Z,0
2017-03-10T02:05:16.690Z,0
2017-03-10T02:06:26.596Z,0
2017-03-10T02:07:37.051Z,0
2017-03-10T02:08:46.976Z,0
2017-03-10T02:09:57.631Z,0
2017-03-10T02:11:07.918Z,0
2017-03-10T02:12:18.218Z,0
2017-03-10T02:13:28.649Z,0
2017-03-10T02:14:39.331Z,0
2017-03-10T02:15:49.984Z,0
2017-03-10T02:17:00.271Z,0
2017-03-10T02:18:10.164Z,0
2017-03-10T02:19:20.583Z,0
2017-03-10T02:20:30.458Z,0
2017-03-10T02:21:40.727Z,0
2017-03-10T02:22:50.623Z,0
2017-03-10T02:24:01.304Z,0
2017-03-10T02:25:11.461Z,0
2017-03-10T02:26:21.345Z,0
2017-03-10T02:27:31.225Z,0
2017-03-10T02:28:41.881Z,0
2017-03-10T02:29:52.167Z,0
2017-03-10T02:31:02.978Z,0
2017-03-10T02:32:13.643Z,0
2017-03-10T02:33:22.750Z,0
2017-03-10T02:34:33.446Z,0
2017-03-10T02:35:43.712Z,0
2017-03-10T02:36:54.182Z,0
2017-03-10T02:38:04.843Z,0
2017-03-10T02:39:14.758Z,0
2017-03-10T02:40:25.024Z,0
2017-03-10T02:41:35.693Z,0
2017-03-10T02:42:46.292Z,0
2017-03-10T02:43:56.561Z,0
2017-03-10T02:45:07.222Z,0
2017-03-10T02:46:17.504Z,0
2017-03-10T02:47:27.813Z,0
2017-03-10T02:48:38.245Z,0
2017-03-10T02:49:48.522Z,0
2017-03-10T02:50:59.174Z,0
2017-03-10T02:52:09.822Z,0
2017-03-10T02:53:19.373Z,0
2017-03-10T02:54:30.274Z,0
2017-03-10T02:55:40.926Z,0
2017-03-10T02:56:51.579Z,0
2017-03-10T02:58:01.101Z,0
2017-03-10T02:59:11.763Z,0
2017-03-10T03:00:21.938Z,0
2017-03-10T03:01:31.800Z,0
2017-03-10T03:02:42.468Z,0
2017-03-10T03:03:52.361Z,0
2017-03-10T03:05:03.051Z,0
2017-03-10T03:06:13.469Z,0
2017-03-10T03:07:24.143Z,0
2017-03-10T03:08:34.436Z,0
2017-03-10T03:09:45.099Z,0
2017-03-10T03:10:55.774Z,0
2017-03-10T03:12:06.562Z,0
2017-03-10T03:13:17.220Z,0
2017-03-10T03:14:27.545Z,0
2017-03-10T03:15:37.037Z,0
2017-03-10T03:16:46.936Z,0
2017-03-10T03:17:57.986Z,0
2017-03-10T03:19:08.283Z,0
2017-03-10T03:20:18.557Z,0
2017-03-10T03:21:28.817Z,0
2017-03-10T03:22:38.716Z,0
2017-03-10T03:23:49.150Z,0
2017-03-10T03:24:59.026Z,0
2017-03-10T03:26:08.936Z,0
2017-03-10T03:27:19.609Z,0
2017-03-10T03:28:29.914Z,0
2017-03-10T03:29:40.715Z,0
2017-03-10T03:30:50.599Z,0
2017-03-10T03:32:00.491Z,0
2017-03-10T03:33:10.363Z,0
2017-03-10T03:34:20.653Z,0
2017-03-10T03:35:31.470Z,0
2017-03-10T03:36:41.738Z,0
2017-03-10T03:37:52.394Z,0
2017-03-10T03:39:02.703Z,0
2017-03-10T03:40:12.623Z,0
2017-03-10T03:41:23.543Z,0
2017-03-10T03:42:33.422Z,0
2017-03-10T03:43:43.712Z,0
2017-03-10T03:44:54.395Z,0
2017-03-10T03:46:04.276Z,0
2017-03-10T03:47:14.891Z,0
2017-03-10T03:48:25.579Z,0
2017-03-10T03:49:35.840Z,0
2017-03-10T03:50:46.098Z,0
2017-03-10T03:51:56.771Z,0
2017-03-10T03:53:07.675Z,0
2017-03-10T03:54:17.961Z,0
2017-03-10T03:55:28.249Z,0
2017-03-10T03:56:38.534Z,0
2017-03-10T03:57:48.804Z,0
2017-03-10T03:58:59.447Z,0
2017-03-10T04:00:09.324Z,0
2017-03-10T04:01:19.594Z,0
2017-03-10T04:02:30.258Z,0
2017-03-10T04:03:40.140Z,0
2017-03-10T04:04:51.041Z,0
2017-03-10T04:06:01.705Z,0
2017-03-10T04:07:11.601Z,0
2017-03-10T04:08:21.880Z,0
2017-03-10T04:09:32.139Z,0
2017-03-10T04:10:42.548Z,0
2017-03-10T04:11:52.832Z,0
2017-03-10T04:13:03.108Z,0
2017-03-10T04:14:12.994Z,0
2017-03-10T04:15:23.268Z,0
2017-03-10T04:16:33.634Z,0
2017-03-10T04:17:44.308Z,0
2017-03-10T04:18:54.213Z,0
2017-03-10T04:20:05.027Z,0
2017-03-10T04:21:15.306Z,0
2017-03-10T04:22:25.686Z,0
2017-03-10T04:23:35.950Z,0
2017-03-10T04:24:46.244Z,0
2017-03-10T04:25:56.504Z,0
2017-03-10T04:27:07.166Z,0
2017-03-10T04:28:18.126Z,0
2017-03-10T04:29:28.418Z,0
2017-03-10T04:30:38.311Z,0
2017-03-10T04:31:48.588Z,0
2017-03-10T04:32:58.874Z,0
2017-03-10T04:34:09.651Z,0
2017-03-10T04:35:19.911Z,0
2017-03-10T04:36:30.202Z,0
2017-03-10T04:37:40.100Z,0
2017-03-10T04:38:50.372Z,0
2017-03-10T04:40:00.599Z,0
2017-03-10T04:41:10.864Z,0
2017-03-10T04:42:21.544Z,0
2017-03-10T04:43:32.199Z,0
2017-03-10T04:44:41.706Z,0
2017-03-10T04:45:52.670Z,0
2017-03-10T04:47:02.559Z,0
2017-03-10T04:48:12.835Z,0
2017-03-10T04:49:23.522Z,0
2017-03-10T04:50:34.193Z,0
2017-03-10T04:51:44.811Z,0
2017-03-10T04:52:55.470Z,0
2017-03-10T04:54:06.119Z,0
2017-03-10T04:55:16.389Z,0
2017-03-10T04:56:26.669Z,0
2017-03-10T04:57:37.248Z,0
2017-03-10T04:58:47.538Z,0
2017-03-10T04:59:58.210Z,0
2017-03-10T05:01:08.875Z,0
2017-03-10T05:02:19.539Z,0
2017-03-10T05:03:30.148Z,0
2017-03-10T05:04:40.060Z,0
2017-03-10T05:05:50.732Z,0
2017-03-10T05:07:00.656Z,0
2017-03-10T05:08:11.304Z,0
2017-03-10T05:09:21.168Z,0
2017-03-10T05:10:31.436Z,0
2017-03-10T05:11:41.721Z,0
2017-03-10T05:12:52.010Z,0
2017-03-10T05:14:02.679Z,0
2017-03-10T05:15:13.505Z,0
2017-03-10T05:16:23.387Z,0
2017-03-10T05:17:33.668Z,0
2017-03-10T05:18:44.341Z,0
2017-03-10T05:19:54.618Z,0
2017-03-10T05:21:05.417Z,0
2017-03-10T05:22:15.720Z,0
2017-03-10T05:23:25.625Z,0
2017-03-10T05:24:36.282Z,0
2017-03-10T05:25:46.555Z,0
2017-03-10T05:26:57.187Z,0
2017-03-10T05:28:07.839Z,0
2017-03-10T05:29:17.719Z,0
2017-03-10T05:30:28.381Z,0
2017-03-10T05:31:38.268Z,0
2017-03-10T05:32:48.843Z,0
2017-03-10T05:33:59.536Z,4
2017-03-10T05:35:09.814Z,4
2017-03-10T05:36:20.487Z,0
2017-03-10T05:37:31.197Z,4
2017-03-10T05:38:41.627Z,4
2017-03-10T05:39:51.507Z,4
2017-03-10T05:41:02.191Z,8
2017-03-10T05:42:12.477Z,4
2017-03-10T05:43:22.766Z,4
2017-03-10T05:44:32.349Z,8
2017-03-10T05:45:42.607Z,12
2017-03-10T05:46:53.541Z,12
2017-03-10T05:48:03.824Z,16
2017-03-10T05:49:14.102Z,16
2017-03-10T05:50:24.928Z,16
2017-03-10T05:51:35.633Z,20
2017-03-10T05:52:45.896Z,24
2017-03-10T05:53:56.183Z,28
2017-03-10T05:55:06.993Z,32
2017-03-10T05:56:17.035Z,40
2017-03-10T05:57:27.686Z,44
2017-03-10T05:58:38.333Z,48
2017-03-10T05:59:48.992Z,52
2017-03-10T06:00:59.272Z,64
2017-03-10T06:02:10.111Z,68
2017-03-10T06:03:20.392Z,72
2017-03-10T06:04:30.664Z,84
2017-03-10T06:05:41.349Z,88
2017-03-10T06:06:51.993Z,88
2017-03-10T06:08:02.745Z,88
2017-03-10T06:09:12.628Z,88
2017-03-10T06:10:22.880Z,92
2017-03-10T06:11:33.547Z,104
2017-03-10T06:12:43.813Z,120
2017-03-10T06:13:53.927Z,148
2017-03-10T06:15:04.223Z,172
2017-03-10T06:16:14.825Z,188
2017-03-10T06:17:25.079Z,196
2017-03-10T06:18:35.747Z,188
2017-03-10T06:19:46.303Z,188
2017-03-10T06:20:56.970Z,188
2017-03-10T06:22:07.278Z,192
2017-03-10T06:23:17.181Z,200
2017-03-10T06:24:27.448Z,216
2017-03-10T06:25:38.278Z,220
2017-03-10T06:26:48.182Z,204
2017-03-10T06:27:58.486Z,184
2017-03-10T06:29:09.160Z,176
2017-03-10T06:30:19.070Z,184
2017-03-10T06:31:30.072Z,176
2017-03-10T06:32:40.344Z,172
2017-03-10T06:33:51.045Z,168
2017-03-10T06:35:00.904Z,176
2017-03-10T06:36:10.787Z,188
2017-03-10T06:37:21.373Z,196
2017-03-10T06:38:31.635Z,204
2017-03-10T06:39:42.323Z,236
2017-03-10T06:40:52.594Z,260
2017-03-10T06:42:02.913Z,304
2017-03-10T06:43:13.437Z,296
2017-03-10T06:44:23.739Z,288
2017-03-10T06:45:33.616Z,284
2017-03-10T06:46:44.284Z,280
2017-03-10T06:47:54.572Z,320
2017-03-10T06:49:05.135Z,400
2017-03-10T06:50:15.404Z,448
2017-03-10T06:51:25.325Z,432
2017-03-10T06:52:35.624Z,440
2017-03-10T06:53:46.305Z,420
2017-03-10T06:54:56.344Z,364
2017-03-10T06:56:06.639Z,308
2017-03-10T06:57:16.945Z,288
2017-03-10T06:58:27.224Z,320
2017-03-10T06:59:37.881Z,324
2017-03-10T07:00:48.271Z,316
2017-03-10T07:01:58.588Z,304
2017-03-10T07:03:08.912Z,336
2017-03-10T07:04:19.184Z,436
2017-03-10T07:05:29.842Z,456
2017-03-10T07:06:40.470Z,440
2017-03-10T07:07:50.351Z,392
2017-03-10T07:09:01.002Z,388
2017-03-10T07:10:11.258Z,460
2017-03-10T07:11:21.185Z,496
2017-03-10T07:12:31.819Z,600
2017-03-10T07:13:42.479Z,668
2017-03-10T07:14:52.759Z,676
2017-03-10T07:16:03.034Z,624
2017-03-10T07:17:13.322Z,596
2017-03-10T07:18:23.571Z,540
2017-03-10T07:19:33.886Z,504
2017-03-10T07:20:43.798Z,540
2017-03-10T07:21:54.487Z,588
2017-03-10T07:23:04.393Z,588
2017-03-10T07:24:14.574Z,712
2017-03-10T07:25:25.234Z,696
2017-03-10T07:26:34.784Z,736
2017-03-10T07:27:45.077Z,868
2017-03-10T07:28:55.358Z,872
2017-03-10T07:30:05.957Z,784
2017-03-10T07:31:16.632Z,744
2017-03-10T07:32:26.894Z,736
2017-03-10T07:33:37.168Z,772
2017-03-10T07:34:47.836Z,860
2017-03-10T07:35:58.371Z,872
2017-03-10T07:37:08.653Z,932
2017-03-10T07:38:18.547Z,1012
2017-03-10T07:39:28.462Z,1084
2017-03-10T07:40:38.352Z,1132
2017-03-10T07:41:48.395Z,1104
2017-03-10T07:42:59.102Z,976
2017-03-10T07:44:09.388Z,916
2017-03-10T07:45:20.066Z,884
2017-03-10T07:46:30.742Z,856
2017-03-10T07:47:41.565Z,820
2017-03-10T07:48:51.857Z,820
2017-03-10T07:50:02.540Z,844
2017-03-10T07:51:12.431Z,944
2017-03-10T07:52:22.720Z,1004
2017-03-10T07:53:33.169Z,1016
2017-03-10T07:54:43.859Z,920
2017-03-10T07:55:54.147Z,928
2017-03-10T07:57:04.853Z,1048
2017-03-10T07:58:14.734Z,1064
2017-03-10T07:59:25.556Z,1136
2017-03-10T08:00:36.240Z,1172
2017-03-10T08:01:46.535Z,1140
2017-03-10T08:02:57.204Z,1248
2017-03-10T08:04:07.482Z,1416
2017-03-10T08:05:18.069Z,1436
2017-03-10T08:06:28.377Z,1488
2017-03-10T08:07:39.041Z,1584
2017-03-10T08:08:49.710Z,1780
2017-03-10T08:09:59.591Z,1812
2017-03-10T08:11:10.254Z,1768
2017-03-10T08:12:20.530Z,1788
2017-03-10T08:13:30.802Z,1700
2017-03-10T08:14:40.997Z,1544
2017-03-10T08:15:51.662Z,1468
2017-03-10T08:17:02.585Z,1312
2017-03-10T08:18:13.265Z,1328
2017-03-10T08:19:23.164Z,1172
2017-03-10T08:20:33.452Z,1132
2017-03-10T08:21:44.124Z,1056
2017-03-10T08:22:54.643Z,1068
2017-03-10T08:24:05.308Z,1092
2017-03-10T08:25:16.023Z,1100
2017-03-10T08:26:25.950Z,1080
2017-03-10T08:27:36.218Z,1068
2017-03-10T08:28:47.209Z,1112
2017-03-10T08:29:58.138Z,1236
2017-03-10T08:31:08.469Z,1416
2017-03-10T08:32:18.741Z,1684
2017-03-10T08:33:29.410Z,1712
2017-03-10T08:34:39.162Z,1716
2017-03-10T08:35:49.445Z,1592
2017-03-10T08:36:59.343Z,1460
2017-03-10T08:38:09.614Z,1440
2017-03-10T08:39:20.288Z,1516
2017-03-10T08:40:29.948Z,1620
2017-03-10T08:41:39.079Z,1820
2017-03-10T08:42:49.744Z,1992
2017-03-10T08:44:00.397Z,1940
2017-03-10T08:45:11.072Z,1812
2017-03-10T08:46:20.761Z,1852
2017-03-10T08:47:31.054Z,1908
2017-03-10T08:48:41.720Z,1976
2017-03-10T08:49:51.992Z,2180
2017-03-10T08:51:02.675Z,2204
2017-03-10T08:52:13.101Z,1880
2017-03-10T08:53:23.803Z,1552
2017-03-10T08:54:34.090Z,1320
2017-03-10T08:55:44.765Z,1320
2017-03-10T08:56:55.038Z,1436
2017-03-10T08:58:05.092Z,1420
2017-03-10T08:59:15.424Z,1440
2017-03-10T09:00:25.701Z,1476
2017-03-10T09:01:35.984Z,1608
2017-03-10T09:02:46.274Z,1692
2017-03-10T09:03:57.270Z,1792
2017-03-10T09:05:07.946Z,1832
2017-03-10T09:06:18.608Z,1944
2017-03-10T09:07:28.900Z,1936
2017-03-10T09:08:39.182Z,1844
2017-03-10T09:09:50.226Z,1712
2017-03-10T09:11:00.154Z,1596
2017-03-10T09:12:10.456Z,1532
2017-03-10T09:13:19.951Z,1484
2017-03-10T09:14:30.247Z,1472
2017-03-10T09:15:41.072Z,1420
2017-03-10T09:16:51.732Z,1356
2017-03-10T09:18:02.013Z,1384
2017-03-10T09:19:12.323Z,1488
2017-03-10T09:20:23.018Z,1500
2017-03-10T09:21:33.980Z,1500
2017-03-10T09:22:44.257Z,1424
2017-03-10T09:23:54.578Z,1332
2017-03-10T09:25:05.261Z,1252
2017-03-10T09:26:15.543Z,1200
2017-03-10T09:27:25.749Z,1140
2017-03-10T09:28:35.652Z,1072
2017-03-10T09:29:46.318Z,1016
2017-03-10T09:30:56.973Z,988
2017-03-10T09:32:06.856Z,1040
2017-03-10T09:33:17.407Z,1024
2017-03-10T09:34:28.091Z,992
2017-03-10T09:35:37.974Z,992
2017-03-10T09:36:48.242Z,960
2017-03-10T09:37:58.524Z,1056
2017-03-10T09:39:09.358Z,1132
2017-03-10T09:40:20.071Z,1188
2017-03-10T09:41:30.355Z,1288
2017-03-10T09:42:41.039Z,1548
2017-03-10T09:43:51.321Z,1840
2017-03-10T09:45:01.752Z,1876
2017-03-10T09:46:10.859Z,1892
2017-03-10T09:47:21.147Z,1936
2017-03-10T09:48:31.835Z,1972
2017-03-10T09:49:42.494Z,1996
2017-03-10T09:50:53.467Z,2120
2017-03-10T09:52:03.387Z,2116
2017-03-10T09:53:13.698Z,2000
2017-03-10T09:54:24.390Z,1892
2017-03-10T09:55:34.673Z,1852
2017-03-10T09:56:45.108Z,1732
2017-03-10T09:57:55.765Z,1580
2017-03-10T09:59:06.439Z,1412
2017-03-10T10:00:17.132Z,1256
2017-03-10T10:01:27.005Z,1240
2017-03-10T10:02:36.649Z,1256
2017-03-10T10:03:46.534Z,1288
2017-03-10T10:04:56.017Z,1304
2017-03-10T10:06:06.288Z,1312
2017-03-10T10:07:16.581Z,1140
2017-03-10T10:08:27.107Z,1108
2017-03-10T10:09:36.639Z,1148
2017-03-10T10:10:46.527Z,1192
2017-03-10T10:11:56.808Z,1324
2017-03-10T10:13:07.104Z,1396
2017-03-10T10:14:17.703Z,1456
2017-03-10T10:15:27.972Z,1620
2017-03-10T10:16:37.869Z,1812
2017-03-10T10:17:48.529Z,1836
2017-03-10T10:18:58.797Z,1732
2017-03-10T10:20:08.842Z,1876
2017-03-10T10:21:19.159Z,1804
2017-03-10T10:22:29.862Z,1784
2017-03-10T10:23:39.763Z,1796
2017-03-10T10:24:50.088Z,1860
2017-03-10T10:26:01.048Z,1948
2017-03-10T10:27:11.341Z,1936
2017-03-10T10:28:21.615Z,1736
2017-03-10T10:29:32.292Z,1612
2017-03-10T10:30:42.984Z,1564
2017-03-10T10:31:53.227Z,1592
2017-03-10T10:33:03.144Z,1576
2017-03-10T10:34:13.831Z,1684
2017-03-10T10:35:24.489Z,1588
2017-03-10T10:36:34.813Z,1492
2017-03-10T10:37:45.754Z,1404
2017-03-10T10:38:56.430Z,1288
2017-03-10T10:40:06.728Z,1128
2017-03-10T10:41:16.621Z,1004
2017-03-10T10:42:26.909Z,996
2017-03-10T10:43:37.110Z,948
2017-03-10T10:44:47.796Z,844
2017-03-10T10:45:58.068Z,748
2017-03-10T10:47:08.752Z,748
2017-03-10T10:48:19.025Z,820
2017-03-10T10:49:30.049Z,820
2017-03-10T10:50:40.356Z,824
2017-03-10T10:51:50.643Z,832
2017-03-10T10:53:00.928Z,836
2017-03-10T10:54:10.833Z,796
2017-03-10T10:55:21.203Z,780
2017-03-10T10:56:31.494Z,772
2017-03-10T10:57:41.796Z,772
2017-03-10T10:58:51.700Z,780
2017-03-10T11:00:02.394Z,792
2017-03-10T11:01:12.458Z,816
2017-03-10T11:02:22.328Z,824
2017-03-10T11:03:32.638Z,832
2017-03-10T11:04:42.978Z,800
2017-03-10T11:05:53.643Z,772
2017-03-10T11:07:03.788Z,764
2017-03-10T11:08:14.080Z,760
2017-03-10T11:09:24.348Z,768
2017-03-10T11:10:34.267Z,788
2017-03-10T11:11:44.607Z,804
2017-03-10T11:12:55.437Z,816
2017-03-10T11:14:04.981Z,796
2017-03-10T11:15:15.651Z,776
2017-03-10T11:16:26.381Z,760
2017-03-10T11:17:36.693Z,768
2017-03-10T11:18:47.146Z,772
2017-03-10T11:19:57.350Z,764
2017-03-10T11:21:08.027Z,756
2017-03-10T11:22:18.323Z,744
2017-03-10T11:23:29.034Z,744
2017-03-10T11:24:39.471Z,740
2017-03-10T11:25:49.744Z,740
2017-03-10T11:27:00.023Z,732
2017-03-10T11:28:10.304Z,728
2017-03-10T11:29:20.596Z,724
2017-03-10T11:30:30.676Z,724
2017-03-10T11:31:40.958Z,732
2017-03-10T11:32:51.648Z,736
2017-03-10T11:34:02.315Z,748
2017-03-10T11:35:11.825Z,728
2017-03-10T11:36:21.822Z,716
2017-03-10T11:37:32.481Z,712
2017-03-10T11:38:42.898Z,708
2017-03-10T11:39:53.584Z,712
2017-03-10T11:41:03.472Z,716
2017-03-10T11:42:14.397Z,704
2017-03-10T11:43:25.097Z,704
2017-03-10T11:44:34.979Z,700
2017-03-10T11:45:45.668Z,704
2017-03-10T11:46:55.927Z,704
2017-03-10T11:48:06.830Z,696
2017-03-10T11:49:17.514Z,692
2017-03-10T11:50:28.188Z,688
2017-03-10T11:51:38.099Z,692
2017-03-10T11:52:48.374Z,688
2017-03-10T11:53:59.405Z,688
2017-03-10T11:55:10.107Z,680
2017-03-10T11:56:19.982Z,684
2017-03-10T11:57:30.645Z,684
2017-03-10T11:58:40.575Z,680
2017-03-10T11:59:51.425Z,680
2017-03-10T12:01:01.731Z,684
2017-03-10T12:02:12.397Z,684
2017-03-10T12:03:22.708Z,684
2017-03-10T12:04:31.831Z,680
2017-03-10T12:05:42.480Z,684
2017-03-10T12:06:52.364Z,680
2017-03-10T12:08:02.249Z,676
2017-03-10T12:09:11.772Z,676
2017-03-10T12:10:22.052Z,676
2017-03-10T12:11:31.665Z,676
2017-03-10T12:12:41.930Z,680
2017-03-10T12:13:52.625Z,676
2017-03-10T12:15:02.907Z,676
2017-03-10T12:16:13.602Z,684
2017-03-10T12:17:24.541Z,684
2017-03-10T12:18:35.400Z,680
2017-03-10T12:19:45.700Z,680
2017-03-10T12:20:56.376Z,680
2017-03-10T12:22:07.052Z,680
2017-03-10T12:23:17.932Z,684
2017-03-10T12:24:28.232Z,684
2017-03-10T12:25:38.900Z,688
2017-03-10T12:26:48.825Z,692
2017-03-10T12:27:58.391Z,700
2017-03-10T12:29:08.921Z,708
2017-03-10T12:30:18.823Z,708
2017-03-10T12:31:29.140Z,708
2017-03-10T12:32:39.074Z,712
2017-03-10T12:33:49.745Z,712
2017-03-10T12:35:00.527Z,712
2017-03-10T12:36:11.217Z,716
2017-03-10T12:37:20.715Z,720
2017-03-10T12:38:31.425Z,724
2017-03-10T12:39:41.318Z,732
2017-03-10T12:40:51.941Z,740
2017-03-10T12:42:02.263Z,740
2017-03-10T12:43:12.957Z,744
2017-03-10T12:44:23.251Z,740
2017-03-10T12:45:33.543Z,732
2017-03-10T12:46:44.373Z,724
2017-03-10T12:47:54.638Z,720
2017-03-10T12:49:04.915Z,716
2017-03-10T12:50:15.209Z,716
2017-03-10T12:51:25.880Z,728
2017-03-10T12:52:36.744Z,736
2017-03-10T12:53:46.629Z,744
2017-03-10T12:54:57.313Z,744
2017-03-10T12:56:07.995Z,744
2017-03-10T12:57:18.682Z,736
2017-03-10T12:58:29.478Z,736
2017-03-10T12:59:40.163Z,740
2017-03-10T13:00:50.853Z,736
2017-03-10T13:02:01.508Z,736
2017-03-10T13:03:11.813Z,728
2017-03-10T13:04:22.779Z,728
2017-03-10T13:05:33.463Z,724
2017-03-10T13:06:43.770Z,724
2017-03-10T13:07:54.453Z,720
2017-03-10T13:09:05.143Z,720
2017-03-10T13:10:15.901Z,716
2017-03-10T13:11:26.189Z,716
2017-03-10T13:12:36.488Z,716
2017-03-10T13:13:45.979Z,716
2017-03-10T13:14:56.248Z,712
2017-03-10T13:16:07.214Z,716
2017-03-10T13:17:17.115Z,720
2017-03-10T13:18:27.381Z,716
2017-03-10T13:19:38.036Z,720
2017-03-10T13:20:48.338Z,720
2017-03-10T13:21:58.492Z,720
2017-03-10T13:23:08.405Z,720
2017-03-10T13:24:18.301Z,720
2017-03-10T13:25:28.589Z,724
2017-03-10T13:26:39.273Z,724
2017-03-10T13:27:49.689Z,724
2017-03-10T13:29:00.390Z,732
2017-03-10T13:30:10.307Z,736
2017-03-10T13:31:19.815Z,740
2017-03-10T13:32:30.764Z,744
2017-03-10T13:33:41.354Z,696
2017-03-10T13:34:51.618Z,668
2017-03-10T13:36:02.304Z,664
2017-03-10T13:37:12.974Z,672
2017-03-10T13:38:23.249Z,668
2017-03-10T13:39:33.680Z,676
2017-03-10T13:40:43.982Z,724
2017-03-10T13:41:53.884Z,728
2017-03-10T13:43:04.545Z,732
2017-03-10T13:44:14.444Z,736
2017-03-10T13:45:25.221Z,732
2017-03-10T13:46:35.493Z,732
2017-03-10T13:47:45.766Z,736
2017-03-10T13:48:56.451Z,736
2017-03-10T13:50:06.718Z,740
2017-03-10T13:51:17.151Z,740
2017-03-10T13:52:26.662Z,740
2017-03-10T13:53:37.364Z,728
2017-03-10T13:54:46.898Z,744
2017-03-10T13:55:57.567Z,772
2017-03-10T13:57:08.019Z,776
2017-03-10T13:58:18.293Z,760
2017-03-10T13:59:28.947Z,772
2017-03-10T14:00:39.200Z,756
2017-03-10T14:01:49.094Z,740
2017-03-10T14:02:59.916Z,736
2017-03-10T14:04:10.184Z,736
2017-03-10T14:05:20.077Z,736
2017-03-10T14:06:30.737Z,744
2017-03-10T14:07:40.617Z,784
2017-03-10T14:08:51.050Z,868
2017-03-10T14:10:01.709Z,924
2017-03-10T14:11:11.609Z,920
2017-03-10T14:12:21.885Z,904
2017-03-10T14:13:32.157Z,900
2017-03-10T14:14:42.688Z,892
2017-03-10T14:15:52.977Z,824
2017-03-10T14:17:03.263Z,848
2017-03-10T14:18:13.538Z,936
2017-03-10T14:19:24.202Z,928
2017-03-10T14:20:34.757Z,980
2017-03-10T14:21:45.419Z,1000
2017-03-10T14:22:55.701Z,984
2017-03-10T14:24:05.994Z,1008
2017-03-10T14:25:15.888Z,1000
2017-03-10T14:26:26.792Z,976
2017-03-10T14:27:37.478Z,892
2017-03-10T14:28:47.738Z,940
2017-03-10T14:29:58.045Z,912
2017-03-10T14:31:07.964Z,916
2017-03-10T14:32:18.552Z,912
2017-03-10T14:33:29.209Z,888
2017-03-10T14:34:39.087Z,884
2017-03-10T14:35:49.741Z,888
2017-03-10T14:37:00.025Z,896
2017-03-10T14:38:10.268Z,916
2017-03-10T14:39:20.949Z,856
2017-03-10T14:40:30.851Z,820
2017-03-10T14:41:41.131Z,804
2017-03-10T14:42:51.427Z,860
2017-03-10T14:44:02.035Z,828
2017-03-10T14:45:11.948Z,816
2017-03-10T14:46:22.643Z,860
2017-03-10T14:47:32.939Z,880
2017-03-10T14:48:43.603Z,836
2017-03-10T14:49:54.596Z,848
2017-03-10T14:51:05.249Z,820
2017-03-10T14:52:15.126Z,784
2017-03-10T14:53:25.820Z,796
2017-03-10T14:54:36.493Z,812
2017-03-10T14:55:46.932Z,864
2017-03-10T14:56:57.232Z,872
2017-03-10T14:58:07.532Z,880
2017-03-10T14:59:18.193Z,892
2017-03-10T15:00:28.844Z,860
2017-03-10T15:01:39.458Z,828
2017-03-10T15:02:49.780Z,832
2017-03-10T15:04:00.428Z,856
2017-03-10T15:05:10.733Z,860
2017-03-10T15:06:20.616Z,896
2017-03-10T15:07:31.174Z,924
2017-03-10T15:08:41.842Z,848
2017-03-10T15:09:51.777Z,760
2017-03-10T15:11:02.067Z,716
2017-03-10T15:12:11.970Z,716
2017-03-10T15:13:23.319Z,724
2017-03-10T15:14:32.813Z,716
2017-03-10T15:15:43.508Z,700
2017-03-10T15:16:53.790Z,672
2017-03-10T15:18:04.494Z,664
2017-03-10T15:19:15.343Z,652
2017-03-10T15:20:26.019Z,644
2017-03-10T15:21:36.726Z,652
2017-03-10T15:22:47.401Z,656
2017-03-10T15:23:58.088Z,664
2017-03-10T15:25:07.794Z,692
2017-03-10T15:26:18.472Z,708
2017-03-10T15:27:29.165Z,716
2017-03-10T15:28:39.433Z,724
2017-03-10T15:29:50.154Z,724
2017-03-10T15:31:00.687Z,736
2017-03-10T15:32:10.561Z,752
2017-03-10T15:33:20.831Z,772
2017-03-10T15:34:31.101Z,772
2017-03-10T15:35:41.370Z,768
2017-03-10T15:36:51.999Z,784
2017-03-10T15:38:02.296Z,780
2017-03-10T15:39:12.987Z,808
2017-03-10T15:40:23.255Z,840
2017-03-10T15:41:33.544Z,852
2017-03-10T15:42:43.983Z,872
2017-03-10T15:43:54.245Z,900
2017-03-10T15:45:04.918Z,896
2017-03-10T15:46:15.206Z,884
2017-03-10T15:47:25.861Z,876
2017-03-10T15:48:36.299Z,872
2017-03-10T15:49:46.970Z,872
2017-03-10T15:50:57.241Z,856
2017-03-10T15:52:07.937Z,844
2017-03-10T15:53:18.620Z,836
2017-03-10T15:54:29.439Z,784
2017-03-10T15:55:39.722Z,724
2017-03-10T15:56:49.649Z,704
2017-03-10T15:57:59.566Z,688
2017-03-10T15:59:09.865Z,664
2017-03-10T16:00:20.433Z,644
2017-03-10T16:01:30.713Z,632
2017-03-10T16:02:40.582Z,624
2017-03-10T16:03:50.925Z,640
2017-03-10T16:05:01.637Z,644
2017-03-10T16:06:12.087Z,672
2017-03-10T16:07:22.766Z,680
2017-03-10T16:08:33.035Z,664
2017-03-10T16:09:43.694Z,656
2017-03-10T16:10:53.970Z,632
2017-03-10T16:12:04.933Z,628
2017-03-10T16:13:14.418Z,620
2017-03-10T16:14:25.092Z,604
2017-03-10T16:15:35.776Z,592
2017-03-10T16:16:46.070Z,588
2017-03-10T16:17:56.591Z,576
2017-03-10T16:19:06.875Z,564
2017-03-10T16:20:16.763Z,556
2017-03-10T16:21:27.445Z,552
2017-03-10T16:22:37.734Z,548
2017-03-10T16:23:48.365Z,540
2017-03-10T16:24:58.255Z,536
2017-03-10T16:26:08.952Z,524
2017-03-10T16:27:18.447Z,516
2017-03-10T16:28:28.345Z,508